Time;durP1;ratioP1;P1;durP2;ratioP2;P2;SDS_P1;SDS_P2;PMS_P1;PMS_P2;Temp;Humidity;BMP_temperature;BMP_pressure;BME280_temperature;BME280_humidity;BME280_pressure;Samples;Min_cycle;Max_cycle;Signal;HPM_P1;HPM_P2
2022/06/12 00:00:50;;;;;;;10.63;3.30;;;;;;;14.92;84.85;102124.09;5010132;28;20022;-71
2022/06/12 00:03:18;;;;;;;10.27;3.50;;;;;;;14.91;84.75;102127.88;5012378;28;20470;-71
2022/06/12 00:05:47;;;;;;;11.13;3.22;;;;;;;14.83;86.21;102114.53;5011938;28;20022;-73
2022/06/12 00:08:13;;;;;;;9.75;3.38;;;;;;;14.73;87.41;102116.94;5012742;28;20041;-72
2022/06/12 00:10:40;;;;;;;10.75;3.17;;;;;;;14.71;86.44;102114.41;5012379;28;20156;-75
2022/06/12 00:13:09;;;;;;;12.52;4.18;;;;;;;14.73;86.93;102119.66;4992698;28;20034;-72
2022/06/12 00:15:35;;;;;;;11.23;3.92;;;;;;;14.68;86.78;102118.41;4995355;28;20025;-74
2022/06/12 00:18:00;;;;;;;13.43;4.18;;;;;;;14.68;86.84;102118.41;5012645;28;20034;-73
2022/06/12 00:20:27;;;;;;;16.90;4.60;;;;;;;14.61;87.02;102109.44;5012374;28;20026;-72
2022/06/12 00:22:53;;;;;;;16.30;4.30;;;;;;;14.54;87.17;102104.03;5012609;28;20040;-72
2022/06/12 00:25:20;;;;;;;9.32;4.07;;;;;;;14.51;86.96;102106.38;5012182;28;20100;-72
2022/06/12 00:27:46;;;;;;;10.88;3.65;;;;;;;14.55;86.46;102110.31;4984980;28;20205;-75
2022/06/12 00:30:15;;;;;;;13.75;4.10;;;;;;;14.51;87.38;102106.38;4992889;28;20136;-71
2022/06/12 00:32:42;;;;;;;12.73;4.13;;;;;;;14.53;85.75;102110.53;5003235;28;20034;-74
2022/06/12 00:35:08;;;;;;;11.50;4.25;;;;;;;14.49;85.94;102109.31;5012531;28;20034;-74
2022/06/12 00:37:35;;;;;;;12.45;4.15;;;;;;;14.49;85.75;102105.75;5011961;28;20033;-72
2022/06/12 00:40:03;;;;;;;9.52;4.10;;;;;;;14.56;85.10;102108.44;5011758;28;20038;-74
2022/06/12 00:42:34;;;;;;;16.85;3.90;;;;;;;14.41;85.82;102106.84;5015121;28;20021;-74
2022/06/12 00:45:23;;;;;;;9.82;3.58;;;;;;;14.29;87.08;102109.44;5016064;28;20088;-71
2022/06/12 00:47:48;;;;;;;16.40;4.47;;;;;;;14.27;87.00;102108.00;5015437;28;20120;-71
2022/06/12 00:50:13;;;;;;;11.35;3.83;;;;;;;14.24;86.36;102109.25;5016017;28;20496;-72
2022/06/12 00:52:47;;;;;;;12.05;4.20;;;;;;;14.24;86.26;102113.88;5015336;28;20587;-71
2022/06/12 00:55:37;;;;;;;14.95;4.47;;;;;;;14.15;86.50;102119.56;5015973;28;20121;-70
2022/06/12 00:58:08;;;;;;;15.65;3.95;;;;;;;14.15;87.03;102116.84;4996363;28;20061;-73
2022/06/12 01:00:34;;;;;;;12.98;3.78;;;;;;;14.15;86.69;102113.31;5002989;28;20026;-72
2022/06/12 01:03:01;;;;;;;14.18;3.83;;;;;;;14.13;86.63;102110.81;5015924;28;20040;-73
2022/06/12 01:08:13;;;;;;;11.20;3.67;;;;;;;14.10;86.76;102105.78;5015620;28;20045;-71
2022/06/12 01:10:42;;;;;;;9.15;3.38;;;;;;;14.09;86.47;102103.28;5014779;28;20524;-74
2022/06/12 01:13:17;;;;;;;15.23;4.30;;;;;;;13.98;86.89;102113.81;5015413;28;20033;-71
2022/06/12 01:15:50;;;;;;;9.15;3.47;;;;;;;13.93;87.79;102108.16;5014903;28;20275;-72
2022/06/12 01:18:20;;;;;;;9.70;3.65;;;;;;;13.93;87.61;102119.03;5015359;28;20066;-73
2022/06/12 01:20:57;;;;;;;13.15;3.90;;;;;;;13.92;86.46;102116.53;5015028;28;20448;-73
2022/06/12 01:23:31;;;;;;;11.93;3.83;;;;;;;14.00;84.83;102106.25;5015408;28;20417;-74
2022/06/12 01:26:23;;;;;;;11.88;3.67;;;;;;;13.95;85.80;102114.25;5014698;28;20033;-71
2022/06/12 01:28:58;;;;;;;13.32;3.90;;;;;;;13.95;86.34;102108.78;5014837;28;20387;-73
2022/06/12 01:31:51;;;;;;;9.68;3.55;;;;;;;13.94;85.75;102107.13;5015110;28;20026;-71
2022/06/12 01:34:22;;;;;;;14.30;3.45;;;;;;;13.87;85.92;102113.66;5015253;28;20034;-74
2022/06/12 01:37:01;;;;;;;10.52;3.50;;;;;;;13.86;86.16;102110.09;5014764;28;20038;-71
2022/06/12 01:39:49;;;;;;;9.00;3.42;;;;;;;13.78;86.30;102108.47;5014621;28;20026;-71
2022/06/12 01:42:34;;;;;;;12.68;3.58;;;;;;;13.78;86.79;102103.03;5014877;28;20109;-71
2022/06/12 01:45:05;;;;;;;13.73;3.85;;;;;;;13.73;86.10;102099.28;5015066;28;20030;-71
2022/06/12 01:47:52;;;;;;;7.90;3.58;;;;;;;13.70;87.49;102094.25;4999532;28;20487;-72
2022/06/12 01:50:20;;;;;;;14.52;4.03;;;;;;;13.61;87.48;102096.38;5013634;28;20377;-74
2022/06/12 01:53:11;;;;;;;12.30;3.65;;;;;;;13.58;87.48;102097.63;5013915;28;20046;-72
2022/06/12 01:56:21;;;;;;;14.27;4.05;;;;;;;13.67;86.49;102100.13;5014351;28;20088;-72
2022/06/12 01:59:03;;;;;;;12.13;3.47;;;;;;;13.56;87.92;102091.59;4971167;28;20043;-72
2022/06/12 02:01:39;;;;;;;16.08;3.75;;;;;;;13.59;87.95;102095.78;4932094;29;20126;-72
2022/06/12 02:04:07;;;;;;;13.07;3.53;;;;;;;13.54;87.27;102090.97;4978557;28;20054;-73
2022/06/12 02:06:48;;;;;;;10.15;3.30;;;;;;;13.58;87.18;102099.53;5003833;28;20069;-74
2022/06/12 02:09:28;;;;;;;9.50;3.30;;;;;;;13.54;87.85;102101.00;5014527;28;20034;-73
2022/06/12 02:14:54;;;;;;;13.15;3.47;;;;;;;13.37;87.83;102097.91;5014024;28;20037;-73
2022/06/12 02:17:25;;;;;;;13.63;4.15;;;;;;;13.34;88.62;102101.06;5013627;28;20034;-73
2022/06/12 02:19:52;;;;;;;16.77;4.10;;;;;;;13.28;88.05;102108.97;5013676;28;20044;-72
2022/06/12 02:22:23;;;;;;;13.85;3.78;;;;;;;13.35;89.26;102114.44;5014583;28;20033;-73
2022/06/12 02:25:09;;;;;;;7.40;3.47;;;;;;;13.42;87.64;102108.97;5014111;28;20191;-71
2022/06/12 02:27:40;;;;;;;10.30;3.47;;;;;;;13.33;88.64;102107.50;5001736;28;20038;-74
2022/06/12 02:30:10;;;;;;;;;;;;;;;13.53;85.15;102105.63;5014205;28;20034;-73
2022/06/12 02:32:40;;;;;;;10.50;3.72;;;;;;;13.35;88.60;102097.31;5013811;28;19921;-73
2022/06/12 02:35:11;;;;;;;12.88;3.88;;;;;;;13.28;89.13;102100.81;5014057;28;20031;-71
2022/06/12 02:37:48;;;;;;;11.77;4.00;;;;;;;13.34;88.76;102101.06;5013174;28;20029;-73
2022/06/12 02:40:19;;;;;;;16.30;4.38;;;;;;;13.35;88.49;102091.88;5013639;28;20041;-72
2022/06/12 02:42:48;;;;;;;11.73;4.10;;;;;;;13.25;89.22;102092.25;5013515;28;20041;-71
2022/06/12 02:45:41;;;;;;;12.70;3.92;;;;;;;13.35;88.26;102086.44;5013678;28;20113;-73
2022/06/12 02:48:07;;;;;;;14.50;3.70;;;;;;;13.32;88.38;102092.25;4994330;28;20089;-73
2022/06/12 02:50:43;;;;;;;14.02;4.82;;;;;;;13.25;88.34;102086.81;4993760;28;20355;-74
2022/06/12 02:53:25;;;;;;;14.55;3.75;;;;;;;13.27;87.92;102085.56;5006102;28;20030;-73
2022/06/12 02:55:57;;;;;;;;;;;;;;;13.43;85.34;102087.00;5013517;28;20048;-71
2022/06/12 02:58:45;;;;;;;12.27;3.20;;;;;;;13.25;87.58;102079.50;5013391;28;19959;-72
2022/06/12 03:01:15;;;;;;;12.93;3.65;;;;;;;13.25;88.57;102084.94;4991657;28;20493;-73
2022/06/12 03:03:44;;;;;;;11.32;3.30;;;;;;;13.26;89.32;102077.63;4993598;28;20034;-71
2022/06/12 03:06:10;;;;;;;12.82;3.63;;;;;;;13.14;88.80;102071.19;4998247;28;20046;-71
2022/06/12 03:08:40;;;;;;;14.43;3.83;;;;;;;13.19;89.35;102084.97;5012100;28;20036;-72
2022/06/12 03:11:24;;;;;;;16.08;4.53;;;;;;;13.27;87.79;102087.44;5012786;28;20607;-71
2022/06/12 03:13:52;;;;;;;14.75;4.10;;;;;;;13.25;88.37;102087.66;5013233;28;20029;-74
2022/06/12 03:16:24;;;;;;;9.52;4.20;;;;;;;13.23;88.57;102089.75;5012595;28;20117;-74
2022/06/12 03:18:58;;;;;;;;;;;;;;;13.42;86.09;102092.66;5013352;28;20036;-74
2022/06/12 03:21:39;;;;;;;15.07;4.18;;;;;;;13.24;88.02;102087.88;5012810;28;19977;-74
2022/06/12 03:24:13;;;;;;;11.20;4.18;;;;;;;13.26;88.76;102086.63;5013536;28;20048;-74
2022/06/12 03:26:43;;;;;;;15.23;4.63;;;;;;;13.30;88.98;102095.19;5012387;28;20367;-72
2022/06/12 03:29:32;;;;;;;13.40;4.32;;;;;;;13.24;89.16;102088.72;5013196;28;20102;-73
2022/06/12 03:32:12;;;;;;;12.55;4.05;;;;;;;13.24;89.90;102094.16;5012968;28;20069;-71
2022/06/12 03:35:20;;;;;;;13.00;4.40;;;;;;;13.22;90.00;102092.69;5012658;28;20037;-72
2022/06/12 03:38:03;;;;;;;12.07;4.20;;;;;;;13.22;89.96;102092.69;4968043;28;20043;-71
2022/06/12 03:40:40;;;;;;;15.60;4.35;;;;;;;13.17;90.36;102092.50;5009094;28;20563;-70
2022/06/12 03:43:49;;;;;;;13.75;4.50;;;;;;;13.21;89.86;102093.72;5012800;28;20034;-70
2022/06/12 03:46:40;;;;;;;18.70;4.70;;;;;;;13.13;90.20;102092.06;4998803;28;20107;-73
2022/06/12 03:49:27;;;;;;;13.02;4.13;;;;;;;13.17;89.56;102096.03;5012952;28;20034;-73
2022/06/12 03:51:59;;;;;;;14.38;4.90;;;;;;;13.06;90.43;102099.41;5012638;28;20359;-70
2022/06/12 03:54:28;;;;;;;;;;;;;;;13.24;87.49;102102.31;5013269;28;20042;-71
2022/06/12 04:00:17;;;;;;;18.15;4.20;;;;;;;12.97;90.76;102100.66;5012159;28;20517;-73
2022/06/12 04:02:45;;;;;;;14.75;4.85;;;;;;;12.93;90.25;102095.66;5009919;28;20160;-72
2022/06/12 04:05:19;;;;;;;14.23;4.80;;;;;;;12.90;91.13;102090.63;5012695;28;20064;-72
2022/06/12 04:07:48;;;;;;;12.95;4.35;;;;;;;12.96;90.06;102096.28;5006036;28;20058;-73
2022/06/12 04:10:23;;;;;;;17.02;4.63;;;;;;;12.96;89.25;102099.00;5012453;28;20038;-74
2022/06/12 04:12:50;;;;;;;11.88;4.30;;;;;;;12.89;89.52;102094.41;5012327;28;20489;-71
2022/06/12 04:15:22;;;;;;;11.02;4.22;;;;;;;12.86;89.39;102093.97;5012492;28;20029;-71
2022/06/12 04:17:48;;;;;;;12.02;4.55;;;;;;;12.85;88.41;102092.34;5016098;28;20030;-73
2022/06/12 04:20:21;;;;;;;16.23;4.65;;;;;;;12.83;88.79;102092.53;5016183;28;20030;-71
2022/06/12 04:23:08;;;;;;;12.77;4.38;;;;;;;12.88;88.39;102098.16;5016484;28;20026;-72
2022/06/12 04:25:49;;;;;;;15.35;4.57;;;;;;;12.82;87.69;102098.16;5016655;28;20030;-75
2022/06/12 04:28:37;;;;;;;12.27;4.27;;;;;;;12.82;87.54;102099.00;5015766;28;20068;-72
2022/06/12 04:31:06;;;;;;;10.13;4.22;;;;;;;12.78;87.36;102103.19;4998881;28;20025;-73
2022/06/12 04:33:55;;;;;;;11.32;3.92;;;;;;;12.82;88.08;102104.44;4998629;28;20038;-70
2022/06/12 04:36:20;;;;;;;13.68;4.57;;;;;;;12.83;87.08;102105.25;4998810;28;20465;-73
2022/06/12 04:38:45;;;;;;;12.50;4.05;;;;;;;12.82;86.42;102112.59;5015827;28;20066;-73
2022/06/12 04:41:20;;;;;;;12.77;4.40;;;;;;;12.86;87.52;102113.00;5015818;28;20038;-70
2022/06/12 04:43:45;;;;;;;10.68;4.60;;;;;;;12.85;86.38;102105.91;5015735;28;20407;-74
2022/06/12 04:46:11;;;;;;;10.18;3.85;;;;;;;12.91;85.20;102108.63;5015645;28;20030;-73
2022/06/12 04:48:39;;;;;;;12.00;4.35;;;;;;;12.89;85.56;102113.44;5016201;28;20033;-73
2022/06/12 04:51:06;;;;;;;14.95;4.30;;;;;;;12.92;85.30;102109.44;5015922;28;20057;-72
2022/06/12 04:53:33;;;;;;;10.45;4.00;;;;;;;12.96;85.48;102109.88;5015486;28;20397;-71
2022/06/12 04:55:58;;;;;;;13.70;4.38;;;;;;;12.98;84.14;102116.75;5014999;28;20092;-73
2022/06/12 04:58:24;;;;;;;17.60;4.28;;;;;;;12.98;84.54;102108.59;5015966;28;20589;-71
2022/06/12 05:00:49;;;;;;;16.10;4.18;;;;;;;13.08;84.15;102113.63;5012030;28;20026;-74
2022/06/12 05:03:14;;;;;;;15.68;4.50;;;;;;;13.09;84.84;102109.88;5015499;28;20091;-72
2022/06/12 05:05:41;;;;;;;14.63;4.22;;;;;;;13.14;83.86;102111.94;5015404;28;20044;-72
2022/06/12 05:08:07;;;;;;;14.45;4.05;;;;;;;13.19;84.59;102102.09;5015642;28;20053;-71
2022/06/12 05:10:33;;;;;;;13.77;4.40;;;;;;;13.27;84.47;102106.47;5015469;28;20029;-72
2022/06/12 05:12:58;;;;;;;16.10;4.65;;;;;;;13.28;83.94;102102.72;5015041;28;20030;-74
2022/06/12 05:15:23;;;;;;;15.48;5.20;;;;;;;13.35;84.42;102105.47;5015436;28;20062;-71
2022/06/12 05:17:49;;;;;;;14.75;4.53;;;;;;;13.44;84.18;102105.00;5014754;28;20026;-70
2022/06/12 05:20:28;;;;;;;13.88;4.28;;;;;;;13.51;83.78;102115.03;5015508;28;20091;-73
2022/06/12 05:22:54;;;;;;;13.02;4.30;;;;;;;13.56;84.16;102116.06;5006648;28;20080;-71
2022/06/12 05:25:20;;;;;;;11.85;3.90;;;;;;;13.58;84.57;102103.06;5015478;28;20061;-72
2022/06/12 05:27:48;;;;;;;16.67;4.30;;;;;;;13.61;84.92;102102.63;5013483;28;20082;-74
2022/06/12 05:30:21;;;;;;;15.45;4.32;;;;;;;13.66;85.12;102104.72;5015054;28;20080;-75
2022/06/12 05:32:48;;;;;;;14.07;4.60;;;;;;;13.75;84.34;102103.44;5014602;28;20034;-71
2022/06/12 05:35:14;;;;;;;17.70;4.93;;;;;;;13.78;83.90;102110.31;5015265;28;20116;-72
2022/06/12 05:37:40;;;;;;;18.38;5.32;;;;;;;13.83;84.56;102111.34;5014649;28;20509;-71
2022/06/12 05:40:10;;;;;;;16.80;5.30;;;;;;;13.88;84.61;102107.16;5015239;28;20046;-74
2022/06/12 05:42:37;;;;;;;13.52;4.05;;;;;;;13.96;84.79;102112.34;5006704;28;20113;-71
2022/06/12 05:45:07;;;;;;;19.63;4.38;;;;;;;13.98;83.40;102123.88;4997023;28;20121;-74
2022/06/12 05:47:33;;;;;;;15.63;4.68;;;;;;;14.05;84.57;102118.38;5015027;28;20033;-74
2022/06/12 05:49:58;;;;;;;18.02;4.50;;;;;;;14.12;84.06;102113.75;5014691;28;20074;-71
2022/06/12 05:52:24;;;;;;;16.42;4.60;;;;;;;14.18;83.24;102112.88;5014455;28;20045;-71
2022/06/12 05:54:49;;;;;;;17.83;5.00;;;;;;;14.23;82.39;102121.19;5014427;28;20052;-71
2022/06/12 05:57:14;;;;;;;17.35;5.47;;;;;;;14.24;82.13;102112.00;5014609;28;20059;-73
2022/06/12 05:59:40;;;;;;;18.83;4.78;;;;;;;14.26;83.84;102123.47;5014525;28;20041;-71
2022/06/12 06:02:06;;;;;;;17.45;5.10;;;;;;;14.29;83.89;102120.31;5011988;28;20025;-71
2022/06/12 06:04:32;;;;;;;17.75;4.38;;;;;;;14.33;85.42;102115.28;5014714;28;20037;-73
2022/06/12 06:06:59;;;;;;;17.33;4.93;;;;;;;14.40;85.47;102116.06;5026768;28;20072;-73
2022/06/12 06:09:25;;;;;;;19.67;5.22;;;;;;;14.45;86.15;102115.44;5034336;28;20116;-74
2022/06/12 06:11:50;;;;;;;20.40;5.15;;;;;;;14.49;86.64;102122.09;5028659;28;20486;-72
2022/06/12 06:14:16;;;;;;;22.95;5.60;;;;;;;14.57;86.52;102121.84;5014620;28;20105;-71
2022/06/12 06:16:42;;;;;;;23.60;6.35;;;;;;;14.61;88.30;102133.16;5014323;28;20030;-71
2022/06/12 06:19:08;;;;;;;20.20;5.30;;;;;;;14.68;88.00;102133.94;5014452;28;20033;-71
2022/06/12 06:21:33;;;;;;;21.20;5.55;;;;;;;14.79;88.47;102135.94;5013202;28;20038;-71
2022/06/12 06:23:59;;;;;;;17.88;5.68;;;;;;;14.84;88.82;102138.00;4994799;28;20033;-75
2022/06/12 06:26:24;;;;;;;24.25;5.53;;;;;;;14.93;89.17;102133.09;5002595;28;20041;-72
2022/06/12 06:28:51;;;;;;;18.40;4.93;;;;;;;14.96;89.17;102136.25;5033832;28;20069;-71
2022/06/12 06:31:18;;;;;;;25.30;6.57;;;;;;;15.03;89.93;102123.34;5021613;28;20030;-70
2022/06/12 06:33:43;;;;;;;24.20;5.35;;;;;;;15.16;91.21;102135.22;5033710;28;20033;-73
2022/06/12 06:36:11;;;;;;;19.98;5.50;;;;;;;15.31;91.00;102132.97;5033905;28;20083;-71
2022/06/12 06:38:37;;;;;;;27.15;6.13;;;;;;;15.40;91.98;102131.59;5032968;28;20034;-72
2022/06/12 06:41:02;;;;;;;23.85;5.80;;;;;;;15.38;89.47;102133.75;5023083;28;20046;-71
2022/06/12 06:43:27;;;;;;;23.50;6.45;;;;;;;15.39;90.61;102140.84;5032110;28;20038;-74
2022/06/12 06:48:37;;;;;;;27.00;5.72;;;;;;;15.42;90.01;102136.84;5033383;28;20103;-73
2022/06/12 06:51:02;;;;;;;20.45;6.55;;;;;;;15.46;89.51;102140.78;5006292;28;20037;-72
2022/06/12 06:53:28;;;;;;;21.83;5.88;;;;;;;15.48;91.48;102152.28;5033517;28;20108;-73
2022/06/12 06:55:53;;;;;;;22.05;6.35;;;;;;;15.55;90.14;102144.88;5033306;28;20036;-73
2022/06/12 06:58:21;;;;;;;28.92;6.38;;;;;;;15.65;90.54;102151.69;5033458;28;20557;-73
2022/06/12 07:00:48;;;;;;;22.30;6.10;;;;;;;15.67;87.28;102147.69;5022513;28;20664;-70
2022/06/12 07:03:14;;;;;;;26.98;6.25;;;;;;;15.71;86.35;102146.16;5013760;28;20029;-74
2022/06/12 07:05:42;;;;;;;23.08;6.38;;;;;;;15.71;87.64;102145.34;5013160;28;20026;-72
2022/06/12 07:08:08;;;;;;;23.25;6.30;;;;;;;15.82;88.22;102141.03;5012946;28;20044;-72
2022/06/12 07:10:35;;;;;;;23.40;5.80;;;;;;;15.93;87.20;102148.47;4995817;28;20034;-73
2022/06/12 07:13:01;;;;;;;23.10;5.78;;;;;;;16.01;88.13;102150.03;5013014;28;20053;-74
2022/06/12 07:15:29;;;;;;;19.63;6.22;;;;;;;16.03;86.12;102153.38;5011830;28;20030;-73
2022/06/12 07:17:54;;;;;;;24.10;6.43;;;;;;;16.06;83.85;102156.50;5011827;28;20044;-73
2022/06/12 07:20:22;;;;;;;24.70;6.47;;;;;;;16.06;84.69;102159.22;5013102;28;20034;-72
2022/06/12 07:22:48;;;;;;;20.88;5.65;;;;;;;16.11;85.05;102148.44;5013088;28;20477;-73
2022/06/12 07:25:15;;;;;;;27.10;6.45;;;;;;;16.09;85.29;102145.13;5013231;28;20026;-74
2022/06/12 07:27:42;;;;;;;25.58;6.50;;;;;;;16.08;83.17;102148.91;5013452;28;20038;-71
2022/06/12 07:30:10;;;;;;;24.08;5.75;;;;;;;16.05;86.00;102149.34;4991749;28;20039;-72
2022/06/12 07:32:37;;;;;;;22.42;6.07;;;;;;;16.05;82.29;102148.53;5013818;28;20060;-71
2022/06/12 07:35:03;;;;;;;30.80;6.65;;;;;;;16.13;84.97;102157.22;4994944;28;20033;-74
2022/06/12 07:37:29;;;;;;;25.63;5.93;;;;;;;16.14;82.15;102152.63;4993180;28;20022;-71
2022/06/12 07:39:55;;;;;;;20.52;6.05;;;;;;;16.15;83.56;102154.25;4992969;28;20117;-75
2022/06/12 07:42:20;;;;;;;20.25;6.35;;;;;;;16.27;83.97;102152.44;5003529;28;20057;-73
2022/06/12 07:44:45;;;;;;;20.55;6.13;;;;;;;16.42;83.42;102153.91;5012937;28;20021;-72
2022/06/12 07:47:10;;;;;;;21.67;5.90;;;;;;;16.53;80.40;102152.25;5012317;28;20034;-71
2022/06/12 07:49:36;;;;;;;21.15;5.65;;;;;;;16.64;79.64;102146.84;5012733;28;20545;-72
2022/06/12 07:52:05;;;;;;;19.85;5.53;;;;;;;16.69;76.35;102151.59;5011562;28;20032;-72
2022/06/12 07:54:31;;;;;;;20.05;5.25;;;;;;;16.69;77.02;102150.78;5012844;28;20091;-74
2022/06/12 07:56:58;;;;;;;19.02;5.43;;;;;;;16.70;77.76;102150.53;5012244;28;20397;-72
2022/06/12 07:59:23;;;;;;;18.15;5.57;;;;;;;16.79;77.20;102151.03;5012857;28;20061;-73
2022/06/12 08:01:52;;;;;;;19.02;5.57;;;;;;;16.84;78.48;102151.16;5010207;28;20455;-74
2022/06/12 08:04:18;;;;;;;18.05;5.22;;;;;;;17.00;78.25;102153.22;5012915;28;20444;-73
2022/06/12 08:06:43;;;;;;;21.88;5.68;;;;;;;17.06;76.17;102148.72;5012084;28;20512;-72
2022/06/12 08:09:11;;;;;;;18.88;6.07;;;;;;;17.08;76.42;102152.03;5012490;28;20057;-75
2022/06/12 08:11:38;;;;;;;19.75;5.53;;;;;;;17.11;76.19;102145.28;5012233;28;20030;-73
2022/06/12 08:14:04;;;;;;;22.08;6.47;;;;;;;17.24;78.04;102146.91;5011755;28;20038;-73
2022/06/12 08:16:33;;;;;;;20.60;5.15;;;;;;;17.38;73.95;102147.50;5012168;28;20038;-74
2022/06/12 08:18:58;;;;;;;15.18;5.10;;;;;;;17.41;74.05;102156.09;5012489;28;20034;-71
2022/06/12 08:21:24;;;;;;;17.65;4.90;;;;;;;17.42;74.80;102141.34;5012199;28;20030;-74
2022/06/12 08:23:56;;;;;;;16.65;5.35;;;;;;;17.46;74.15;102145.25;5011777;28;20040;-75
2022/06/12 08:26:25;;;;;;;18.67;5.20;;;;;;;17.52;74.69;102144.28;5011718;28;20030;-75
2022/06/12 08:28:58;;;;;;;15.38;4.57;;;;;;;17.51;71.64;102145.38;5011392;28;20627;-74
2022/06/12 08:31:30;;;;;;;12.75;4.85;;;;;;;17.52;72.78;102147.00;5011955;28;20113;-73
2022/06/12 08:34:06;;;;;;;21.73;5.88;;;;;;;17.51;72.02;102159.06;5004192;28;20113;-72
2022/06/12 08:36:32;;;;;;;17.27;5.50;;;;;;;17.47;71.94;102151.56;5011742;28;20026;-74
2022/06/12 08:38:59;;;;;;;20.60;5.25;;;;;;;17.48;70.38;102151.31;5011816;28;20034;-73
2022/06/12 08:41:34;;;;;;;16.48;5.15;;;;;;;17.43;70.55;102148.47;5011708;28;20489;-74
2022/06/12 08:44:29;;;;;;;18.77;5.28;;;;;;;17.46;71.34;102152.63;5004598;28;20041;-72
2022/06/12 08:47:17;;;;;;;20.17;6.28;;;;;;;17.58;71.44;102144.41;5011067;28;20038;-75
2022/06/12 08:50:16;;;;;;;17.48;5.15;;;;;;;17.47;71.11;102137.88;5011175;28;20105;-75
2022/06/12 08:52:49;;;;;;;16.60;5.45;;;;;;;17.54;70.91;102144.88;5011404;28;20084;-81
2022/06/12 08:55:48;;;;;;;17.13;5.10;;;;;;;17.58;70.90;102138.94;5011284;28;20065;-72
2022/06/12 08:58:30;;;;;;;14.75;5.53;;;;;;;17.64;71.64;102132.50;5005526;28;20080;-77
2022/06/12 09:00:58;;;;;;;20.55;5.28;;;;;;;17.63;69.71;102134.38;5008174;28;20034;-73
2022/06/12 09:03:27;;;;;;;18.63;4.85;;;;;;;17.77;69.56;102131.38;5014224;28;20538;-72
2022/06/12 09:06:15;;;;;;;21.10;4.78;;;;;;;17.92;68.61;102133.63;5014231;28;20500;-73
2022/06/12 09:08:49;;;;;;;17.73;4.35;;;;;;;17.98;66.72;102127.19;5014965;28;20068;-73
2022/06/12 09:11:30;;;;;;;16.42;4.50;;;;;;;18.10;67.64;102124.41;5014259;28;20096;-74
2022/06/12 09:14:11;;;;;;;15.10;5.13;;;;;;;18.17;66.41;102125.91;5014775;28;20043;-74
2022/06/12 09:16:56;;;;;;;9.60;3.30;;;;;;;18.19;62.44;102126.50;4997561;28;20034;-71
2022/06/12 09:19:39;;;;;;;13.40;4.57;;;;;;;18.16;65.53;102127.00;5013612;28;20026;-70
2022/06/12 09:22:17;;;;;;;14.63;4.25;;;;;;;18.24;65.31;102115.63;5014169;28;20058;-74
2022/06/12 09:24:57;;;;;;;13.45;4.03;;;;;;;18.34;63.42;102116.91;5015253;28;20040;-71
2022/06/12 09:27:41;;;;;;;15.77;4.03;;;;;;;18.38;63.51;102112.59;5007501;28;20080;-77
2022/06/12 09:30:20;;;;;;;22.60;4.75;;;;;;;18.53;62.76;102128.47;5014499;28;20044;-74
2022/06/12 09:33:07;;;;;;;16.67;4.75;;;;;;;18.65;63.76;102125.69;5015205;28;20054;-73
2022/06/12 09:35:52;;;;;;;11.60;5.00;;;;;;;18.74;63.39;102121.44;5009450;28;20080;-75
2022/06/12 09:38:42;;;;;;;14.48;4.60;;;;;;;18.88;62.81;102120.03;5007149;28;20037;-73
2022/06/12 09:41:22;;;;;;;17.02;4.85;;;;;;;18.84;62.23;102118.03;5014274;28;20112;-73
2022/06/12 09:44:14;;;;;;;16.92;5.30;;;;;;;18.91;64.75;102124.19;5013308;28;20034;-71
2022/06/12 09:57:38;;;;;;;10.93;3.85;;;;;;;19.16;60.15;102121.03;5012740;28;20440;-72
2022/06/12 10:00:13;;;;;;;14.45;4.07;;;;;;;19.17;59.89;102121.84;5010647;28;20061;-73
2022/06/12 10:02:48;;;;;;;13.65;4.20;;;;;;;19.13;59.89;102116.03;5007234;28;20025;-73
2022/06/12 10:05:28;;;;;;;13.60;3.60;;;;;;;19.28;58.54;102118.19;5014100;28;20030;-76
2022/06/12 10:08:12;;;;;;;15.05;3.72;;;;;;;19.13;58.74;102114.13;5014386;28;20042;-73
2022/06/12 10:10:40;;;;;;;13.55;3.83;;;;;;;19.21;58.44;102115.59;5014125;28;20484;-76
2022/06/12 10:13:12;;;;;;;13.90;4.15;;;;;;;19.20;58.11;102111.19;5013299;28;20061;-75
2022/06/12 10:15:47;;;;;;;16.50;4.78;;;;;;;19.20;58.73;102116.66;5012979;28;20124;-75
2022/06/12 10:18:27;;;;;;;13.32;3.70;;;;;;;19.23;59.38;102099.69;5015214;28;20461;-76
2022/06/12 10:20:57;;;;;;;14.80;3.90;;;;;;;19.19;59.13;102105.94;5012911;28;20029;-71
2022/06/12 10:23:22;;;;;;;14.65;3.83;;;;;;;19.11;58.37;102112.69;5013785;28;20477;-77
2022/06/12 10:25:56;;;;;;;14.75;3.53;;;;;;;19.11;59.54;102112.69;5014173;28;20041;-75
2022/06/12 10:28:35;;;;;;;14.00;3.63;;;;;;;19.12;59.52;102103.41;4997971;28;20026;-77
2022/06/12 10:31:10;;;;;;;13.73;3.72;;;;;;;19.05;59.24;102109.06;5013830;28;20547;-72
2022/06/12 10:33:41;;;;;;;13.98;4.10;;;;;;;19.03;59.31;102102.16;4996669;28;20434;-73
2022/06/12 10:36:26;;;;;;;16.80;3.97;;;;;;;19.15;59.36;102096.59;5013838;28;20065;-72
2022/06/12 10:39:03;;;;;;;14.63;3.60;;;;;;;19.16;58.83;102096.34;5012548;28;20037;-73
2022/06/12 10:41:30;;;;;;;13.70;3.95;;;;;;;19.16;58.16;102099.06;5013823;28;20084;-73
2022/06/12 10:44:01;;;;;;;15.38;3.95;;;;;;;19.22;58.30;102098.06;5013609;28;20034;-73
2022/06/12 10:46:30;;;;;;;9.40;3.55;;;;;;;19.24;58.15;102098.63;5013400;28;20034;-71
2022/06/12 10:49:16;;;;;;;13.85;3.50;;;;;;;19.32;57.72;102096.53;5027586;28;20041;-74
2022/06/12 10:51:42;;;;;;;9.43;3.20;;;;;;;19.45;57.72;102096.16;5030204;28;20026;-74
2022/06/12 10:54:14;;;;;;;13.98;3.47;;;;;;;19.50;55.90;102098.16;5013168;28;20034;-75
2022/06/12 10:56:46;;;;;;;13.98;3.50;;;;;;;19.56;55.98;102100.69;5013809;28;20033;-74
2022/06/12 10:59:33;;;;;;;11.52;3.17;;;;;;;19.63;56.70;102090.34;5013541;28;20112;-76
2022/06/12 11:02:07;;;;;;;11.68;3.05;;;;;;;19.74;56.08;102087.75;5011564;28;20026;-74
2022/06/12 11:04:53;;;;;;;14.52;3.28;;;;;;;19.93;54.52;102086.34;5022117;28;20025;-74
2022/06/12 11:07:59;;;;;;;15.00;3.20;;;;;;;20.17;56.21;102083.31;5032824;28;20060;-74
2022/06/12 11:10:44;;;;;;;13.40;3.63;;;;;;;20.23;54.64;102085.00;4950116;28;20401;-75
2022/06/12 11:13:31;;;;;;;12.88;3.92;;;;;;;20.34;54.77;102081.25;4993766;28;20030;-75
2022/06/12 11:16:09;;;;;;;8.80;2.72;;;;;;;20.38;55.49;102075.22;4994112;28;20037;-73
2022/06/12 11:18:45;;;;;;;14.70;3.38;;;;;;;20.42;53.99;102087.38;4994096;28;20124;-73
2022/06/12 11:21:19;;;;;;;14.68;3.15;;;;;;;20.47;55.15;102087.41;4994206;28;20030;-74
2022/06/12 11:24:03;;;;;;;11.45;3.22;;;;;;;20.48;55.62;102086.31;5012640;28;20061;-74
2022/06/12 11:26:43;;;;;;;9.75;2.97;;;;;;;20.54;55.35;102088.00;5013257;28;20508;-72
2022/06/12 11:29:26;;;;;;;11.80;3.22;;;;;;;20.57;53.84;102084.75;5012780;28;20034;-74
2022/06/12 11:32:02;;;;;;;14.15;3.45;;;;;;;20.49;54.58;102074.25;5012190;28;20036;-72
2022/06/12 11:34:46;;;;;;;10.98;2.90;;;;;;;20.41;55.12;102082.94;5012492;28;20034;-74
2022/06/12 11:37:26;;;;;;;12.35;2.90;;;;;;;20.28;53.85;102078.72;5012447;28;20061;-73
2022/06/12 11:40:33;;;;;;;11.23;3.10;;;;;;;20.20;54.62;102069.03;5013156;28;20026;-72
2022/06/12 11:43:11;;;;;;;12.32;3.05;;;;;;;20.48;55.34;102064.31;5019008;28;20025;-74
2022/06/12 11:46:08;;;;;;;13.70;3.20;;;;;;;20.76;53.98;102060.44;5032755;28;20052;-75
2022/06/12 11:48:45;;;;;;;9.68;2.72;;;;;;;21.11;52.71;102052.69;4968787;28;20045;-75
2022/06/12 11:51:20;;;;;;;9.55;2.53;;;;;;;21.09;46.95;102058.47;4992999;28;20478;-73
2022/06/12 11:54:02;;;;;;;7.32;2.58;;;;;;;20.92;49.08;102057.78;4993262;28;20083;-74
2022/06/12 11:56:30;;;;;;;9.93;2.70;;;;;;;20.85;49.63;102058.84;4993353;28;20037;-74
2022/06/12 11:59:15;;;;;;;13.63;2.85;;;;;;;20.89;48.98;102053.63;5003376;28;20033;-76
2022/06/12 12:01:52;;;;;;;11.88;2.92;;;;;;;20.71;49.77;102055.75;5030214;28;20111;-73
2022/06/12 12:04:54;;;;;;;11.88;2.88;;;;;;;20.59;50.44;102049.53;5032543;28;20116;-74
2022/06/12 12:07:37;;;;;;;;;;;;;;;20.84;50.42;102034.34;5028488;28;20119;-74
2022/06/12 12:10:14;;;;;;;7.13;2.53;;;;;;;20.89;49.26;102053.63;5019027;28;20008;-75